createdAt,value
2022-08-20T00:01:16.791Z,20.05
2022-08-20T00:03:44.842Z,20.73
2022-08-20T00:06:23.874Z,20.10
2022-08-20T00:08:51.874Z,19.80
2022-08-20T00:11:25.856Z,19.58
2022-08-20T00:13:58.329Z,19.83
2022-08-20T00:16:32.888Z,21.35
2022-08-20T00:19:02.242Z,20.50
2022-08-20T00:21:29.323Z,20.30
2022-08-20T00:24:01.772Z,19.60
2022-08-20T00:26:28.809Z,19.67
2022-08-20T00:28:55.891Z,20.88
2022-08-20T00:31:24.538Z,21.85
2022-08-20T00:33:52.987Z,22.42
2022-08-20T00:36:21.832Z,20.55
2022-08-20T00:38:57.060Z,21.48
2022-08-20T00:41:27.079Z,24.15
2022-08-20T00:44:07.906Z,21.52
2022-08-20T00:46:36.142Z,23.27
2022-08-20T00:49:08.040Z,23.20
2022-08-20T00:54:37.500Z,21.10
2022-08-20T00:57:12.321Z,22.73
2022-08-20T00:59:41.872Z,22.65
2022-08-20T01:02:14.338Z,22.20
2022-08-20T01:04:46.299Z,22.27
2022-08-20T01:09:58.577Z,21.98
2022-08-20T01:12:29.271Z,20.90
2022-08-20T01:14:59.697Z,21.25
2022-08-20T01:17:32.959Z,22.40
2022-08-20T01:20:32.652Z,21.15
2022-08-20T01:23:48.963Z,20.98
2022-08-20T01:26:32.437Z,21.10
2022-08-20T01:29:06.186Z,22.30
2022-08-20T01:31:37.378Z,21.73
2022-08-20T01:34:09.814Z,21.63
2022-08-20T01:36:46.339Z,20.33
2022-08-20T01:39:19.356Z,21.48
2022-08-20T01:41:58.225Z,20.25
2022-08-20T01:44:26.619Z,19.88
2022-08-20T01:46:58.122Z,20.63
2022-08-20T01:49:31.094Z,20.85
2022-08-20T01:52:07.558Z,21.75
2022-08-20T01:54:35.476Z,21.33
2022-08-20T01:57:11.710Z,21.38
2022-08-20T01:59:47.332Z,21.50
2022-08-20T02:02:14.572Z,21.63
2022-08-20T02:04:42.476Z,21.25
2022-08-20T02:07:22.241Z,22.92
2022-08-20T02:09:50.357Z,21.60
2022-08-20T02:12:17.594Z,22.20
2022-08-20T02:14:51.346Z,22.10
2022-08-20T02:17:22.557Z,20.48
2022-08-20T02:20:01.965Z,23.42
2022-08-20T02:22:50.357Z,22.60
2022-08-20T02:25:20.389Z,24.67
2022-08-20T02:27:52.523Z,23.65
2022-08-20T02:30:35.663Z,23.33
2022-08-20T02:33:06.602Z,22.60
2022-08-20T02:35:35.024Z,23.70
2022-08-20T02:38:02.910Z,25.42
2022-08-20T02:40:31.949Z,24.70
2022-08-20T02:43:00.899Z,24.63
2022-08-20T02:45:30.508Z,25.30
2022-08-20T02:47:59.294Z,24.13
2022-08-20T02:50:27.857Z,24.73
2022-08-20T02:52:57.762Z,23.30
2022-08-20T02:55:27.469Z,22.67
2022-08-20T02:58:00.574Z,23.08
2022-08-20T03:00:32.073Z,24.25
2022-08-20T03:03:08.074Z,21.83
2022-08-20T03:05:36.352Z,22.38
2022-08-20T03:08:08.355Z,24.63
2022-08-20T03:10:38.501Z,21.90
2022-08-20T03:13:11.325Z,22.48
2022-08-20T03:15:47.545Z,21.55
2022-08-20T03:18:15.642Z,20.80
2022-08-20T03:20:43.737Z,21.50
2022-08-20T03:23:14.190Z,22.27
2022-08-20T03:25:42.130Z,20.30
2022-08-20T03:28:10.226Z,20.60
2022-08-20T03:30:38.133Z,20.55
2022-08-20T03:33:05.547Z,20.98
2022-08-20T03:35:34.768Z,21.58
2022-08-20T03:38:06.173Z,20.20
2022-08-20T03:40:35.488Z,19.23
2022-08-20T03:43:02.732Z,19.08
2022-08-20T03:45:30.062Z,18.70
2022-08-20T03:47:58.038Z,21.23
2022-08-20T03:50:29.501Z,20.92
2022-08-20T03:52:57.742Z,22.52
2022-08-20T03:55:26.146Z,22.05
2022-08-20T03:58:03.188Z,21.40
2022-08-20T04:00:51.504Z,20.13
2022-08-20T04:03:19.283Z,20.65
2022-08-20T04:05:49.342Z,20.20
2022-08-20T04:08:26.999Z,21.05
2022-08-20T04:10:57.847Z,20.63
2022-08-20T04:13:26.799Z,20.88
2022-08-20T04:15:57.862Z,19.40
2022-08-20T04:18:27.053Z,20.27
2022-08-20T04:20:54.516Z,20.00
2022-08-20T04:23:22.625Z,18.95
2022-08-20T04:25:49.883Z,19.83
2022-08-20T04:28:28.683Z,19.33
2022-08-20T04:30:59.241Z,19.50
2022-08-20T04:33:34.002Z,20.10
2022-08-20T04:36:05.937Z,19.27
2022-08-20T04:38:47.948Z,21.77
2022-08-20T04:41:23.408Z,19.38
2022-08-20T04:43:56.481Z,19.95
2022-08-20T04:46:28.142Z,19.80
2022-08-20T04:48:56.326Z,19.70
2022-08-20T04:51:28.071Z,19.05
2022-08-20T04:56:26.774Z,19.88
2022-08-20T04:59:00.662Z,20.05
2022-08-20T05:01:28.596Z,18.75
2022-08-20T05:03:57.872Z,20.48
2022-08-20T05:06:29.626Z,19.60
2022-08-20T05:08:59.632Z,18.38
2022-08-20T05:11:35.226Z,19.58
2022-08-20T05:14:09.163Z,19.70
2022-08-20T05:16:40.941Z,19.88
2022-08-20T05:19:11.923Z,18.63
2022-08-20T05:21:40.260Z,19.52
2022-08-20T05:24:07.890Z,18.80
2022-08-20T05:26:35.673Z,19.40
2022-08-20T05:29:05.415Z,19.55
2022-08-20T05:31:34.892Z,19.05
2022-08-20T05:34:12.440Z,19.77
2022-08-20T05:36:48.121Z,19.98
2022-08-20T05:39:18.596Z,19.83
2022-08-20T05:41:46.799Z,19.70
2022-08-20T05:44:15.052Z,21.10
2022-08-20T05:46:45.413Z,19.95
2022-08-20T05:49:17.284Z,20.92
2022-08-20T05:51:44.612Z,21.35
2022-08-20T05:54:12.450Z,21.80
2022-08-20T05:56:39.973Z,24.10
2022-08-20T05:59:09.311Z,20.08
2022-08-20T06:01:39.733Z,20.45
2022-08-20T06:04:31.929Z,21.67
2022-08-20T06:07:07.443Z,20.10
2022-08-20T06:09:36.175Z,21.02
2022-08-20T06:12:06.663Z,20.63
2022-08-20T06:14:34.794Z,22.33
2022-08-20T06:17:15.610Z,21.15
2022-08-20T06:19:44.891Z,21.65
2022-08-20T06:22:19.270Z,20.55
2022-08-20T06:24:51.925Z,21.63
2022-08-20T06:27:20.031Z,20.98
2022-08-20T06:29:48.310Z,23.08
2022-08-20T06:32:15.893Z,21.20
2022-08-20T06:34:49.808Z,20.73
2022-08-20T06:37:31.280Z,21.80
2022-08-20T06:40:09.080Z,22.10
2022-08-20T06:42:36.593Z,20.73
2022-08-20T06:45:05.919Z,21.70
2022-08-20T06:47:33.908Z,20.52
2022-08-20T06:50:00.917Z,19.90
2022-08-20T06:52:29.923Z,20.92
2022-08-20T06:55:17.391Z,20.58
2022-08-20T06:57:45.193Z,20.80
2022-08-20T07:00:17.831Z,19.70
2022-08-20T07:02:46.949Z,19.92
2022-08-20T07:05:14.283Z,20.55
2022-08-20T07:07:46.967Z,19.55
2022-08-20T07:10:16.836Z,19.75
2022-08-20T07:12:44.694Z,19.27
2022-08-20T07:15:14.162Z,18.92
2022-08-20T07:17:42.398Z,20.10
2022-08-20T07:20:15.373Z,20.35
2022-08-20T07:22:43.375Z,20.13
2022-08-20T07:25:14.465Z,20.27
2022-08-20T07:27:44.200Z,20.38
2022-08-20T07:30:56.978Z,20.58
2022-08-20T07:33:28.283Z,21.50
2022-08-20T07:35:58.564Z,20.00
2022-08-20T07:38:30.604Z,20.80
2022-08-20T07:41:02.557Z,19.70
2022-08-20T07:43:30.490Z,19.88
2022-08-20T07:46:02.293Z,19.63
2022-08-20T07:48:32.453Z,18.48
2022-08-20T07:51:04.344Z,17.88
2022-08-20T07:53:35.845Z,18.05
2022-08-20T07:56:11.406Z,18.23
2022-08-20T07:58:49.698Z,18.35
2022-08-20T08:01:20.536Z,18.33
2022-08-20T08:03:50.444Z,18.65
2022-08-20T08:06:29.149Z,19.25
2022-08-20T08:09:13.159Z,19.15
2022-08-20T08:11:47.440Z,18.63
2022-08-20T08:14:18.892Z,18.50
2022-08-20T08:16:46.169Z,19.30
2022-08-20T08:19:16.677Z,16.75
2022-08-20T08:21:44.500Z,17.42
2022-08-20T08:24:15.598Z,17.40
2022-08-20T08:26:49.967Z,18.65
2022-08-20T08:29:17.340Z,18.88
2022-08-20T08:31:44.751Z,19.33
2022-08-20T08:34:12.991Z,19.05
2022-08-20T08:36:40.553Z,19.58
2022-08-20T08:39:07.522Z,18.83
2022-08-20T08:41:37.673Z,20.10
2022-08-20T08:44:17.700Z,19.55
2022-08-20T08:46:49.060Z,19.42
2022-08-20T08:49:25.727Z,18.40
2022-08-20T08:52:43.343Z,18.95
2022-08-20T08:55:19.552Z,17.02
2022-08-20T08:57:49.803Z,17.50
2022-08-20T09:00:21.838Z,17.52
2022-08-20T09:03:12.950Z,20.00
2022-08-20T09:05:46.442Z,20.00
2022-08-20T09:08:17.996Z,19.40
2022-08-20T09:13:13.252Z,17.17
2022-08-20T09:15:40.394Z,18.63
2022-08-20T09:18:07.467Z,18.30
2022-08-20T09:20:34.883Z,17.80
2022-08-20T09:23:04.938Z,17.55
2022-08-20T09:25:32.347Z,16.45
2022-08-20T09:27:59.360Z,16.73
2022-08-20T09:30:26.984Z,16.35
2022-08-20T09:32:54.385Z,15.95
2022-08-20T09:35:23.210Z,16.38
2022-08-20T09:37:50.980Z,16.13
2022-08-20T09:40:21.391Z,15.40
2022-08-20T09:42:49.669Z,16.63
2022-08-20T09:45:16.925Z,17.05
2022-08-20T09:48:01.954Z,17.52
2022-08-20T09:50:33.773Z,19.58
2022-08-20T09:53:04.233Z,17.67
2022-08-20T09:55:38.905Z,17.33
2022-08-20T09:58:36.768Z,18.65
2022-08-20T10:01:14.954Z,17.98
2022-08-20T10:03:44.319Z,18.27
2022-08-20T10:06:14.730Z,19.10
2022-08-20T10:08:41.788Z,18.77
2022-08-20T10:11:09.037Z,19.90
2022-08-20T10:13:36.001Z,19.80
2022-08-20T10:16:03.499Z,21.02
2022-08-20T10:18:30.458Z,21.10
2022-08-20T10:20:57.411Z,20.63
2022-08-20T10:23:24.464Z,20.30
2022-08-20T10:25:51.446Z,19.98
2022-08-20T10:28:18.467Z,19.80
2022-08-20T10:30:45.437Z,19.10
2022-08-20T10:33:12.549Z,21.33
2022-08-20T10:35:39.673Z,20.52
2022-08-20T10:38:06.665Z,20.73
2022-08-20T10:40:33.900Z,21.48
2022-08-20T10:43:00.917Z,21.25
2022-08-20T10:45:27.967Z,22.75
2022-08-20T10:47:54.945Z,22.83
2022-08-20T10:50:22.063Z,21.63
2022-08-20T10:52:49.042Z,20.00
2022-08-20T10:55:16.792Z,21.50
2022-08-20T10:57:44.501Z,19.98
2022-08-20T11:00:15.085Z,21.20
2022-08-20T11:02:42.503Z,21.30
2022-08-20T11:05:09.868Z,19.98
2022-08-20T11:07:55.737Z,19.85
2022-08-20T11:10:29.743Z,21.23
2022-08-20T11:12:57.268Z,19.77
2022-08-20T11:15:24.486Z,20.88
2022-08-20T11:17:51.620Z,21.83
2022-08-20T11:20:21.807Z,21.65
2022-08-20T11:22:49.127Z,23.30
2022-08-20T11:25:16.677Z,21.05
2022-08-20T11:27:47.468Z,21.35
2022-08-20T11:30:23.737Z,21.35
2022-08-20T11:32:51.197Z,19.33
2022-08-20T11:35:41.496Z,19.67
2022-08-20T11:38:06.644Z,20.25
2022-08-20T11:40:34.059Z,19.90
2022-08-20T11:43:17.535Z,19.02
2022-08-20T11:45:48.543Z,19.63
2022-08-20T11:48:18.253Z,20.23
2022-08-20T11:50:46.847Z,19.65
2022-08-20T11:53:14.964Z,19.88
2022-08-20T11:55:45.684Z,19.88
2022-08-20T11:58:12.855Z,20.40
2022-08-20T12:00:40.116Z,19.70
2022-08-20T12:03:09.421Z,18.48
2022-08-20T12:05:39.285Z,20.13
2022-08-20T12:08:08.536Z,20.10
2022-08-20T12:10:37.724Z,19.67
2022-08-20T12:13:06.913Z,20.20
2022-08-20T12:15:36.725Z,19.23
2022-08-20T12:18:08.708Z,18.00
2022-08-20T12:20:37.481Z,18.88
2022-08-20T12:23:04.961Z,19.25
2022-08-20T12:25:32.315Z,19.00
2022-08-20T12:27:59.719Z,18.38
2022-08-20T12:30:28.327Z,18.23
2022-08-20T12:32:55.711Z,18.10
2022-08-20T12:35:23.479Z,20.13
2022-08-20T12:37:52.226Z,22.27
2022-08-20T12:40:32.165Z,21.88
2022-08-20T12:43:02.637Z,22.75
2022-08-20T12:45:31.864Z,20.77
2022-08-20T12:48:07.313Z,22.35
2022-08-20T12:50:37.302Z,21.30
2022-08-20T12:53:05.365Z,21.10
2022-08-20T12:55:33.233Z,21.13
2022-08-20T12:58:03.790Z,21.00
2022-08-20T13:00:39.255Z,20.83
2022-08-20T13:03:12.892Z,21.42
2022-08-20T13:05:40.721Z,22.05
2022-08-20T13:08:11.732Z,21.70
2022-08-20T13:10:46.435Z,20.38
2022-08-20T13:13:19.928Z,20.50
2022-08-20T13:15:48.763Z,21.05
2022-08-20T13:18:15.838Z,21.92
2022-08-20T13:20:42.935Z,20.42
2022-08-20T13:23:10.375Z,20.90
2022-08-20T13:25:37.467Z,20.65
2022-08-20T13:28:05.713Z,21.08
2022-08-20T13:30:38.401Z,19.48
2022-08-20T13:33:05.504Z,21.02
2022-08-20T13:35:32.623Z,20.10
2022-08-20T13:37:59.658Z,20.42
2022-08-20T13:40:27.732Z,20.85
2022-08-20T13:42:54.746Z,18.45
2022-08-20T13:45:24.256Z,18.50
2022-08-20T13:47:55.039Z,19.67
2022-08-20T13:50:25.677Z,19.00
2022-08-20T13:52:53.043Z,19.70
2022-08-20T13:55:22.715Z,19.45
2022-08-20T13:57:56.534Z,20.08
2022-08-20T14:00:32.317Z,18.27
2022-08-20T14:03:05.756Z,18.23
2022-08-20T14:05:35.448Z,20.30
2022-08-20T14:08:10.973Z,19.25
2022-08-20T14:10:39.955Z,20.50
2022-08-20T14:13:15.110Z,18.98
2022-08-20T14:15:43.424Z,19.17
2022-08-20T14:18:10.628Z,18.83
2022-08-20T14:20:38.701Z,19.40
2022-08-20T14:23:06.233Z,19.17
2022-08-20T14:25:33.581Z,18.98
2022-08-20T14:28:18.145Z,18.30
2022-08-20T14:30:46.867Z,18.15
2022-08-20T14:33:19.798Z,18.23
2022-08-20T14:35:51.462Z,18.17
2022-08-20T14:38:18.494Z,18.52
2022-08-20T14:40:45.760Z,18.83
2022-08-20T14:43:12.821Z,18.67
2022-08-20T14:45:39.879Z,18.77
2022-08-20T14:48:09.155Z,18.67
2022-08-20T14:50:37.488Z,17.98
2022-08-20T14:53:04.990Z,18.87
2022-08-20T14:55:37.317Z,18.58
2022-08-20T14:58:11.077Z,19.40
2022-08-20T15:00:38.481Z,18.45
2022-08-20T15:03:05.592Z,18.95
2022-08-20T15:05:34.646Z,19.70
2022-08-20T15:08:07.471Z,17.73
2022-08-20T15:10:34.597Z,18.23
2022-08-20T15:13:02.572Z,17.55
2022-08-20T15:15:30.124Z,18.40
2022-08-20T15:18:00.423Z,18.17
2022-08-20T15:20:31.440Z,18.83
2022-08-20T15:22:59.096Z,18.33
2022-08-20T15:25:37.056Z,17.80
2022-08-20T15:28:07.136Z,19.02
2022-08-20T15:33:15.148Z,19.85
2022-08-20T15:35:42.139Z,18.65
2022-08-20T15:38:09.379Z,19.90
2022-08-20T15:40:36.530Z,18.52
2022-08-20T15:43:07.716Z,18.33
2022-08-20T15:45:36.061Z,18.35
2022-08-20T15:48:09.082Z,18.67
2022-08-20T15:50:48.288Z,18.90
2022-08-20T15:53:33.352Z,17.85
2022-08-20T15:56:18.850Z,18.88
2022-08-20T15:59:34.757Z,18.67
2022-08-20T16:02:41.444Z,19.63
2022-08-20T16:05:44.421Z,19.23
2022-08-20T16:08:12.761Z,20.38
2022-08-20T16:11:16.712Z,19.48
2022-08-20T16:14:20.095Z,18.67
2022-08-20T16:16:59.040Z,18.92
2022-08-20T16:19:51.674Z,18.33
2022-08-20T16:22:20.542Z,19.83
2022-08-20T16:24:48.372Z,20.23
2022-08-20T16:27:33.538Z,19.70
2022-08-20T16:30:11.162Z,21.92
2022-08-20T16:33:15.577Z,20.75
2022-08-20T16:36:17.865Z,20.10
2022-08-20T16:39:02.569Z,18.67
2022-08-20T16:41:40.621Z,19.20
2022-08-20T16:44:28.729Z,19.88
2022-08-20T16:47:14.360Z,19.42
2022-08-20T16:50:11.429Z,19.98
2022-08-20T16:52:45.477Z,19.38
2022-08-20T16:55:13.801Z,20.02
2022-08-20T16:57:41.482Z,20.05
2022-08-20T17:00:25.463Z,19.25
2022-08-20T17:03:03.889Z,19.98
2022-08-20T17:05:54.371Z,19.63
2022-08-20T17:08:36.436Z,20.77
2022-08-20T17:11:12.351Z,21.10
2022-08-20T17:13:46.668Z,19.27
2022-08-20T17:16:14.946Z,18.98
2022-08-20T17:18:47.221Z,19.52
2022-08-20T17:21:35.643Z,20.20
2022-08-20T17:24:17.875Z,19.33
2022-08-20T17:26:57.611Z,20.52
2022-08-20T17:29:30.873Z,19.20
2022-08-20T17:32:26.339Z,18.73
2022-08-20T17:34:57.899Z,19.45
2022-08-20T17:37:40.846Z,27.88
2022-08-20T17:40:58.873Z,20.77
2022-08-20T17:43:32.631Z,18.30
2022-08-20T17:46:11.346Z,18.60
2022-08-20T17:48:50.141Z,17.60
2022-08-20T17:51:32.587Z,17.67
2022-08-20T17:54:21.999Z,18.85
2022-08-20T17:56:58.014Z,16.80
2022-08-20T17:59:59.818Z,17.35
2022-08-20T18:02:30.785Z,17.83
2022-08-20T18:05:00.425Z,17.58
2022-08-20T18:10:23.777Z,17.60
2022-08-20T18:13:20.770Z,16.83
2022-08-20T18:15:55.698Z,16.65
2022-08-20T18:18:29.678Z,17.50
2022-08-20T18:21:14.810Z,17.40
2022-08-20T18:23:49.302Z,17.98
2022-08-20T18:26:44.063Z,16.98
2022-08-20T18:29:22.663Z,17.48
2022-08-20T18:31:56.383Z,17.70
2022-08-20T18:34:44.933Z,12.48
2022-08-20T18:37:14.889Z,11.50
2022-08-20T18:39:46.419Z,12.00
2022-08-20T18:42:22.436Z,12.20
2022-08-20T18:44:53.175Z,11.02
2022-08-20T18:47:50.365Z,10.68
2022-08-20T18:50:47.545Z,5.10
2022-08-20T18:53:33.117Z,4.22
2022-08-20T18:56:13.788Z,3.83
2022-08-20T18:59:04.200Z,6.97
2022-08-20T19:01:36.077Z,6.55
2022-08-20T19:06:44.879Z,5.65
2022-08-20T19:09:46.904Z,6.95
2022-08-20T19:12:33.362Z,4.78
2022-08-20T19:15:30.267Z,4.60
2022-08-20T19:18:17.322Z,5.00
2022-08-20T19:20:55.675Z,4.75
2022-08-20T19:23:28.556Z,5.20
2022-08-20T19:26:07.230Z,4.63
2022-08-20T19:28:57.885Z,4.90
2022-08-20T19:31:32.707Z,5.18
2022-08-20T19:34:18.039Z,4.97
2022-08-20T19:36:54.483Z,5.30
2022-08-20T19:39:29.098Z,4.47
2022-08-20T19:42:01.786Z,5.15
2022-08-20T19:44:36.963Z,4.30
2022-08-20T19:47:04.763Z,4.13
2022-08-20T19:49:59.126Z,4.80
2022-08-20T19:52:47.624Z,3.85
2022-08-20T19:55:40.000Z,4.35
2022-08-20T20:00:51.598Z,4.28
2022-08-20T20:03:27.415Z,4.25
2022-08-20T20:06:00.635Z,4.63
2022-08-20T20:08:36.752Z,4.82
2022-08-20T20:11:04.025Z,5.22
2022-08-20T20:13:35.675Z,5.18
2022-08-20T20:16:07.746Z,5.50
2022-08-20T20:18:38.828Z,5.88
2022-08-20T20:21:37.805Z,6.00
2022-08-20T20:24:08.597Z,5.57
2022-08-20T20:26:39.134Z,6.43
2022-08-20T20:29:05.934Z,6.07
2022-08-20T20:31:50.126Z,6.65
2022-08-20T20:34:24.193Z,6.55
2022-08-20T20:38:28.391Z,7.45
2022-08-20T20:41:00.148Z,7.65
2022-08-20T20:43:32.911Z,8.27
2022-08-20T20:46:25.275Z,8.48
2022-08-20T20:49:33.334Z,7.70
2022-08-20T20:52:14.889Z,7.38
2022-08-20T20:57:18.547Z,6.93
2022-08-20T20:59:51.294Z,6.38
2022-08-20T21:02:22.259Z,5.68
2022-08-20T21:04:52.590Z,5.70
2022-08-20T21:07:24.049Z,5.15
2022-08-20T21:09:54.693Z,5.65
2022-08-20T21:12:22.326Z,5.30
2022-08-20T21:14:51.390Z,4.60
2022-08-20T21:17:22.691Z,5.00
2022-08-20T21:19:51.949Z,4.68
2022-08-20T21:22:20.883Z,4.50
2022-08-20T21:24:51.340Z,4.90
2022-08-20T21:27:25.195Z,4.22
2022-08-20T21:29:53.317Z,5.53
2022-08-20T21:32:21.159Z,4.63
2022-08-20T21:35:00.763Z,4.30
2022-08-20T21:37:28.093Z,4.03
2022-08-20T21:39:55.909Z,4.60
2022-08-20T21:42:28.986Z,4.47
2022-08-20T21:44:59.735Z,4.53
2022-08-20T21:47:27.058Z,5.50
2022-08-20T21:49:54.853Z,4.80
2022-08-20T21:52:21.980Z,4.32
2022-08-20T21:54:49.270Z,4.90
2022-08-20T21:57:23.705Z,4.22
2022-08-20T21:59:51.921Z,4.60
2022-08-20T22:02:19.849Z,4.30
2022-08-20T22:04:47.133Z,4.60
2022-08-20T22:07:20.585Z,4.38
2022-08-20T22:09:48.059Z,4.15
2022-08-20T22:12:20.423Z,4.63
2022-08-20T22:14:51.013Z,4.53
2022-08-20T22:17:21.789Z,4.38
2022-08-20T22:19:49.156Z,4.90
2022-08-20T22:22:20.581Z,4.80
2022-08-20T22:24:47.855Z,4.35
2022-08-20T22:27:15.374Z,4.47
2022-08-20T22:29:42.630Z,4.60
2022-08-20T22:32:09.728Z,4.70
2022-08-20T22:34:38.007Z,4.85
2022-08-20T22:37:05.404Z,5.38
2022-08-20T22:39:32.700Z,5.18
2022-08-20T22:42:00.010Z,5.10
2022-08-20T22:44:27.478Z,4.82
2022-08-20T22:47:01.734Z,5.05
2022-08-20T22:49:36.237Z,5.13
2022-08-20T22:52:03.515Z,4.68
2022-08-20T22:54:30.622Z,6.38
2022-08-20T22:56:57.845Z,5.53
2022-08-20T22:59:25.600Z,6.30
2022-08-20T23:01:53.611Z,5.05
2022-08-20T23:04:35.061Z,5.68
2022-08-20T23:07:04.018Z,5.45
2022-08-20T23:09:31.542Z,5.10
2022-08-20T23:11:58.595Z,5.45
2022-08-20T23:14:26.907Z,5.05
2022-08-20T23:17:27.025Z,5.10
2022-08-20T23:19:54.415Z,5.57
2022-08-20T23:22:21.516Z,5.28
2022-08-20T23:24:48.770Z,5.07
2022-08-20T23:27:18.623Z,5.88
2022-08-20T23:29:45.811Z,5.70
2022-08-20T23:32:13.417Z,5.90
2022-08-20T23:34:41.546Z,5.97
2022-08-20T23:37:12.098Z,5.68
2022-08-20T23:39:46.336Z,5.63
2022-08-20T23:42:14.693Z,6.25
2022-08-20T23:44:42.262Z,5.53
2022-08-20T23:47:11.171Z,6.82
2022-08-20T23:49:38.203Z,6.50
2022-08-20T23:52:05.507Z,6.95
2022-08-20T23:54:33.843Z,7.05
2022-08-20T23:57:08.108Z,7.15
2022-08-20T23:59:35.963Z,6.82
